sensor_id;sensor_type;location;lat;lon;timestamp;P1;durP1;ratioP1;P2;durP2;ratioP2
19537;SDS011;9914;51.008;4.300;2023-07-24T00:01:00;1166.17;;;999.90;;
19537;SDS011;9914;51.008;4.300;2023-07-24T00:03:26;1178.30;;;999.90;;
19537;SDS011;9914;51.008;4.300;2023-07-24T00:05:52;1175.70;;;999.90;;
19537;SDS011;9914;51.008;4.300;2023-07-24T00:08:18;1184.13;;;999.90;;
19537;SDS011;9914;51.008;4.300;2023-07-24T00:10:43;1157.83;;;999.90;;
19537;SDS011;9914;51.008;4.300;2023-07-24T00:13:09;1184.03;;;999.90;;
19537;SDS011;9914;51.008;4.300;2023-07-24T00:15:35;1162.80;;;999.90;;
19537;SDS011;9914;51.008;4.300;2023-07-24T00:18:00;1173.13;;;999.90;;
19537;SDS011;9914;51.008;4.300;2023-07-24T00:20:26;1182.17;;;999.90;;
19537;SDS011;9914;51.008;4.300;2023-07-24T00:22:52;1183.13;;;999.90;;
19537;SDS011;9914;51.008;4.300;2023-07-24T00:25:17;1173.23;;;999.90;;
19537;SDS011;9914;51.008;4.300;2023-07-24T00:27:44;1168.47;;;999.90;;
19537;SDS011;9914;51.008;4.300;2023-07-24T00:30:10;1178.60;;;999.90;;
19537;SDS011;9914;51.008;4.300;2023-07-24T00:32:36;1168.37;;;999.90;;
19537;SDS011;9914;51.008;4.300;2023-07-24T00:35:01;1175.23;;;999.90;;
19537;SDS011;9914;51.008;4.300;2023-07-24T00:37:27;1172.03;;;999.90;;
19537;SDS011;9914;51.008;4.300;2023-07-24T00:39:53;1160.60;;;999.90;;
19537;SDS011;9914;51.008;4.300;2023-07-24T00:42:18;1161.57;;;999.90;;
19537;SDS011;9914;51.008;4.300;2023-07-24T00:44:44;1153.60;;;999.90;;
19537;SDS011;9914;51.008;4.300;2023-07-24T00:47:10;1157.00;;;999.90;;
19537;SDS011;9914;51.008;4.300;2023-07-24T00:49:35;1140.47;;;999.90;;
19537;SDS011;9914;51.008;4.300;2023-07-24T00:52:01;1157.10;;;999.90;;
19537;SDS011;9914;51.008;4.300;2023-07-24T00:54:27;1198.20;;;999.90;;
19537;SDS011;9914;51.008;4.300;2023-07-24T00:56:57;1140.73;;;999.90;;
19537;SDS011;9914;51.008;4.300;2023-07-24T00:59:23;1164.60;;;999.90;;
19537;SDS011;9914;51.008;4.300;2023-07-24T01:01:49;1164.33;;;999.90;;
19537;SDS011;9914;51.008;4.300;2023-07-24T01:04:15;1177.00;;;999.90;;
19537;SDS011;9914;51.008;4.300;2023-07-24T01:06:40;1141.73;;;999.90;;
19537;SDS011;9914;51.008;4.300;2023-07-24T01:09:06;1176.20;;;999.90;;
19537;SDS011;9914;51.008;4.300;2023-07-24T01:11:42;1189.37;;;999.90;;
19537;SDS011;9914;51.008;4.300;2023-07-24T01:14:13;1192.13;;;999.90;;
19537;SDS011;9914;51.008;4.300;2023-07-24T01:16:46;1197.40;;;999.90;;
19537;SDS011;9914;51.008;4.300;2023-07-24T01:19:36;1198.63;;;999.90;;
19537;SDS011;9914;51.008;4.300;2023-07-24T01:22:11;1210.37;;;999.90;;
19537;SDS011;9914;51.008;4.300;2023-07-24T01:27:33;1218.13;;;999.90;;
19537;SDS011;9914;51.008;4.300;2023-07-24T01:29:59;1217.87;;;999.90;;
19537;SDS011;9914;51.008;4.300;2023-07-24T01:32:24;1237.40;;;999.90;;
19537;SDS011;9914;51.008;4.300;2023-07-24T01:34:50;1229.93;;;999.90;;
19537;SDS011;9914;51.008;4.300;2023-07-24T01:37:17;1232.23;;;999.90;;
19537;SDS011;9914;51.008;4.300;2023-07-24T01:39:45;1231.60;;;999.90;;
19537;SDS011;9914;51.008;4.300;2023-07-24T01:42:12;1243.73;;;999.90;;
19537;SDS011;9914;51.008;4.300;2023-07-24T01:44:39;1237.90;;;999.90;;
19537;SDS011;9914;51.008;4.300;2023-07-24T01:47:04;1248.10;;;999.90;;
19537;SDS011;9914;51.008;4.300;2023-07-24T01:49:30;1253.90;;;999.90;;
19537;SDS011;9914;51.008;4.300;2023-07-24T01:51:56;1269.40;;;999.90;;
19537;SDS011;9914;51.008;4.300;2023-07-24T01:54:22;1263.70;;;999.90;;
19537;SDS011;9914;51.008;4.300;2023-07-24T01:56:48;1261.43;;;999.90;;
19537;SDS011;9914;51.008;4.300;2023-07-24T01:59:13;1252.50;;;999.90;;
19537;SDS011;9914;51.008;4.300;2023-07-24T02:01:39;1267.10;;;999.90;;
19537;SDS011;9914;51.008;4.300;2023-07-24T02:04:05;1266.07;;;999.90;;
19537;SDS011;9914;51.008;4.300;2023-07-24T02:06:30;1260.10;;;999.90;;
19537;SDS011;9914;51.008;4.300;2023-07-24T02:08:56;1253.03;;;999.90;;
19537;SDS011;9914;51.008;4.300;2023-07-24T02:11:21;1257.90;;;999.90;;
19537;SDS011;9914;51.008;4.300;2023-07-24T02:13:47;1246.57;;;999.90;;
19537;SDS011;9914;51.008;4.300;2023-07-24T02:16:13;1227.60;;;999.90;;
19537;SDS011;9914;51.008;4.300;2023-07-24T02:18:40;1217.40;;;999.90;;
19537;SDS011;9914;51.008;4.300;2023-07-24T02:21:07;1205.27;;;999.90;;
19537;SDS011;9914;51.008;4.300;2023-07-24T02:23:33;1206.13;;;999.90;;
19537;SDS011;9914;51.008;4.300;2023-07-24T02:25:59;1176.13;;;999.90;;
19537;SDS011;9914;51.008;4.300;2023-07-24T02:28:25;1166.20;;;999.90;;
19537;SDS011;9914;51.008;4.300;2023-07-24T02:30:51;1158.13;;;999.90;;
19537;SDS011;9914;51.008;4.300;2023-07-24T02:33:18;1106.70;;;999.90;;
19537;SDS011;9914;51.008;4.300;2023-07-24T02:35:43;1096.77;;;997.80;;
19537;SDS011;9914;51.008;4.300;2023-07-24T02:38:09;1111.77;;;999.90;;
19537;SDS011;9914;51.008;4.300;2023-07-24T02:40:35;1070.97;;;985.57;;
19537;SDS011;9914;51.008;4.300;2023-07-24T02:43:01;1075.37;;;988.23;;
19537;SDS011;9914;51.008;4.300;2023-07-24T02:45:27;1102.07;;;999.03;;
19537;SDS011;9914;51.008;4.300;2023-07-24T02:47:52;1074.87;;;988.17;;
19537;SDS011;9914;51.008;4.300;2023-07-24T02:50:18;1074.00;;;987.27;;
19537;SDS011;9914;51.008;4.300;2023-07-24T02:52:43;1059.17;;;977.10;;
19537;SDS011;9914;51.008;4.300;2023-07-24T02:55:09;1071.87;;;985.67;;
19537;SDS011;9914;51.008;4.300;2023-07-24T02:57:35;1052.93;;;971.30;;
19537;SDS011;9914;51.008;4.300;2023-07-24T03:00:00;1026.83;;;950.67;;
19537;SDS011;9914;51.008;4.300;2023-07-24T03:02:26;1027.90;;;950.10;;
19537;SDS011;9914;51.008;4.300;2023-07-24T03:04:52;1056.70;;;976.97;;
19537;SDS011;9914;51.008;4.300;2023-07-24T03:07:17;1045.33;;;965.97;;
19537;SDS011;9914;51.008;4.300;2023-07-24T03:09:43;1042.67;;;964.87;;
19537;SDS011;9914;51.008;4.300;2023-07-24T03:12:08;1055.03;;;975.03;;
19537;SDS011;9914;51.008;4.300;2023-07-24T03:14:34;1065.23;;;982.50;;
19537;SDS011;9914;51.008;4.300;2023-07-24T03:16:59;1078.23;;;991.47;;
19537;SDS011;9914;51.008;4.300;2023-07-24T03:19:25;1067.03;;;985.03;;
19537;SDS011;9914;51.008;4.300;2023-07-24T03:21:51;1156.00;;;999.90;;
19537;SDS011;9914;51.008;4.300;2023-07-24T03:24:16;1085.57;;;995.60;;
19537;SDS011;9914;51.008;4.300;2023-07-24T03:26:42;1122.73;;;999.90;;
19537;SDS011;9914;51.008;4.300;2023-07-24T03:29:08;1087.90;;;996.37;;
19537;SDS011;9914;51.008;4.300;2023-07-24T03:31:34;1149.80;;;999.90;;
19537;SDS011;9914;51.008;4.300;2023-07-24T03:33:59;1076.67;;;988.87;;
19537;SDS011;9914;51.008;4.300;2023-07-24T03:36:25;1130.20;;;999.90;;
19537;SDS011;9914;51.008;4.300;2023-07-24T03:38:50;1097.53;;;996.87;;
19537;SDS011;9914;51.008;4.300;2023-07-24T03:41:16;1066.07;;;984.43;;
19537;SDS011;9914;51.008;4.300;2023-07-24T03:43:42;1032.10;;;955.00;;
19537;SDS011;9914;51.008;4.300;2023-07-24T03:46:08;1101.77;;;997.03;;
19537;SDS011;9914;51.008;4.300;2023-07-24T03:48:34;1150.40;;;999.90;;
19537;SDS011;9914;51.008;4.300;2023-07-24T03:51:00;1062.77;;;975.70;;
19537;SDS011;9914;51.008;4.300;2023-07-24T03:53:26;1082.00;;;986.80;;
19537;SDS011;9914;51.008;4.300;2023-07-24T03:55:52;1047.83;;;963.50;;
19537;SDS011;9914;51.008;4.300;2023-07-24T03:58:18;1079.03;;;984.47;;
19537;SDS011;9914;51.008;4.300;2023-07-24T04:00:43;1039.03;;;956.17;;
19537;SDS011;9914;51.008;4.300;2023-07-24T04:03:09;1014.77;;;937.87;;
19537;SDS011;9914;51.008;4.300;2023-07-24T04:05:35;1018.87;;;940.67;;
19537;SDS011;9914;51.008;4.300;2023-07-24T04:08:01;1017.17;;;944.83;;
19537;SDS011;9914;51.008;4.300;2023-07-24T04:10:27;1043.67;;;968.70;;
19537;SDS011;9914;51.008;4.300;2023-07-24T04:12:53;999.07;;;928.50;;
19537;SDS011;9914;51.008;4.300;2023-07-24T04:15:19;968.70;;;901.17;;
19537;SDS011;9914;51.008;4.300;2023-07-24T04:17:45;978.80;;;912.03;;
19537;SDS011;9914;51.008;4.300;2023-07-24T04:20:12;915.10;;;857.43;;
19537;SDS011;9914;51.008;4.300;2023-07-24T04:22:38;891.27;;;834.33;;
19537;SDS011;9914;51.008;4.300;2023-07-24T04:25:04;882.93;;;828.73;;
19537;SDS011;9914;51.008;4.300;2023-07-24T04:27:29;877.20;;;824.47;;
19537;SDS011;9914;51.008;4.300;2023-07-24T04:29:55;843.13;;;792.83;;
19537;SDS011;9914;51.008;4.300;2023-07-24T04:32:21;852.93;;;802.37;;
19537;SDS011;9914;51.008;4.300;2023-07-24T04:34:46;843.77;;;792.87;;
19537;SDS011;9914;51.008;4.300;2023-07-24T04:37:12;836.23;;;786.63;;
19537;SDS011;9914;51.008;4.300;2023-07-24T04:39:42;778.07;;;732.30;;
19537;SDS011;9914;51.008;4.300;2023-07-24T04:42:08;779.30;;;734.40;;
19537;SDS011;9914;51.008;4.300;2023-07-24T04:44:34;794.93;;;748.50;;
19537;SDS011;9914;51.008;4.300;2023-07-24T04:46:59;787.83;;;741.77;;
19537;SDS011;9914;51.008;4.300;2023-07-24T04:49:28;771.17;;;725.50;;
19537;SDS011;9914;51.008;4.300;2023-07-24T04:51:54;805.53;;;758.00;;
19537;SDS011;9914;51.008;4.300;2023-07-24T04:54:20;799.63;;;743.20;;
19537;SDS011;9914;51.008;4.300;2023-07-24T04:56:46;771.50;;;727.43;;
19537;SDS011;9914;51.008;4.300;2023-07-24T04:59:12;757.07;;;714.53;;
19537;SDS011;9914;51.008;4.300;2023-07-24T05:01:38;743.87;;;702.63;;
19537;SDS011;9914;51.008;4.300;2023-07-24T05:04:04;716.03;;;676.87;;
19537;SDS011;9914;51.008;4.300;2023-07-24T05:09:00;691.30;;;652.97;;
19537;SDS011;9914;51.008;4.300;2023-07-24T05:11:26;671.30;;;636.17;;
19537;SDS011;9914;51.008;4.300;2023-07-24T05:13:51;662.03;;;626.47;;
19537;SDS011;9914;51.008;4.300;2023-07-24T05:16:17;689.50;;;651.03;;
19537;SDS011;9914;51.008;4.300;2023-07-24T05:18:43;623.07;;;590.80;;
19537;SDS011;9914;51.008;4.300;2023-07-24T05:21:08;772.67;;;714.10;;
19537;SDS011;9914;51.008;4.300;2023-07-24T05:23:34;683.47;;;645.97;;
19537;SDS011;9914;51.008;4.300;2023-07-24T05:26:01;722.70;;;680.80;;
19537;SDS011;9914;51.008;4.300;2023-07-24T05:28:28;680.33;;;641.80;;
19537;SDS011;9914;51.008;4.300;2023-07-24T05:31:01;702.97;;;663.17;;
19537;SDS011;9914;51.008;4.300;2023-07-24T05:33:28;779.03;;;734.00;;
19537;SDS011;9914;51.008;4.300;2023-07-24T05:35:58;781.80;;;735.30;;
19537;SDS011;9914;51.008;4.300;2023-07-24T05:38:27;751.13;;;707.17;;
19537;SDS011;9914;51.008;4.300;2023-07-24T05:40:57;725.63;;;682.20;;
19537;SDS011;9914;51.008;4.300;2023-07-24T05:43:26;758.13;;;712.00;;
19537;SDS011;9914;51.008;4.300;2023-07-24T05:45:53;691.30;;;647.27;;
19537;SDS011;9914;51.008;4.300;2023-07-24T05:48:21;671.73;;;629.97;;
19537;SDS011;9914;51.008;4.300;2023-07-24T05:50:47;697.87;;;656.23;;
19537;SDS011;9914;51.008;4.300;2023-07-24T05:53:13;727.10;;;677.50;;
19537;SDS011;9914;51.008;4.300;2023-07-24T05:55:39;682.07;;;627.07;;
19537;SDS011;9914;51.008;4.300;2023-07-24T05:58:07;622.30;;;580.83;;
19537;SDS011;9914;51.008;4.300;2023-07-24T06:00:32;543.77;;;510.80;;
19537;SDS011;9914;51.008;4.300;2023-07-24T06:02:58;583.80;;;544.47;;
19537;SDS011;9914;51.008;4.300;2023-07-24T06:05:24;1491.47;;;815.40;;
19537;SDS011;9914;51.008;4.300;2023-07-24T06:07:49;1475.13;;;799.37;;
19537;SDS011;9914;51.008;4.300;2023-07-24T06:10:15;1999.90;;;999.90;;
19537;SDS011;9914;51.008;4.300;2023-07-24T06:12:40;294.20;;;275.07;;
19537;SDS011;9914;51.008;4.300;2023-07-24T06:15:06;1999.90;;;999.90;;
19537;SDS011;9914;51.008;4.300;2023-07-24T06:17:32;1999.90;;;999.90;;
19537;SDS011;9914;51.008;4.300;2023-07-24T06:19:58;1999.90;;;999.90;;
19537;SDS011;9914;51.008;4.300;2023-07-24T06:22:23;1999.90;;;999.90;;
19537;SDS011;9914;51.008;4.300;2023-07-24T06:24:49;1999.90;;;999.90;;
19537;SDS011;9914;51.008;4.300;2023-07-24T06:27:15;1999.90;;;999.90;;
19537;SDS011;9914;51.008;4.300;2023-07-24T06:29:41;1999.90;;;999.90;;
19537;SDS011;9914;51.008;4.300;2023-07-24T06:32:07;1999.90;;;999.90;;
19537;SDS011;9914;51.008;4.300;2023-07-24T06:34:38;1999.90;;;999.90;;
19537;SDS011;9914;51.008;4.300;2023-07-24T06:37:04;1999.90;;;999.90;;
19537;SDS011;9914;51.008;4.300;2023-07-24T06:39:29;1999.90;;;999.90;;
19537;SDS011;9914;51.008;4.300;2023-07-24T06:41:56;1999.90;;;999.90;;
19537;SDS011;9914;51.008;4.300;2023-07-24T06:44:21;1999.90;;;999.90;;
19537;SDS011;9914;51.008;4.300;2023-07-24T06:46:47;1999.90;;;999.90;;
19537;SDS011;9914;51.008;4.300;2023-07-24T06:49:13;1999.90;;;999.90;;
19537;SDS011;9914;51.008;4.300;2023-07-24T06:51:39;1999.90;;;999.90;;
19537;SDS011;9914;51.008;4.300;2023-07-24T06:54:05;1999.90;;;999.90;;
19537;SDS011;9914;51.008;4.300;2023-07-24T06:56:31;1999.90;;;999.90;;
19537;SDS011;9914;51.008;4.300;2023-07-24T06:58:57;1999.90;;;999.90;;
19537;SDS011;9914;51.008;4.300;2023-07-24T07:01:23;1999.90;;;999.90;;
19537;SDS011;9914;51.008;4.300;2023-07-24T07:03:48;1999.90;;;999.90;;
19537;SDS011;9914;51.008;4.300;2023-07-24T07:06:14;1999.90;;;999.90;;
19537;SDS011;9914;51.008;4.300;2023-07-24T07:08:40;1436.23;;;763.00;;
19537;SDS011;9914;51.008;4.300;2023-07-24T07:11:05;1999.90;;;999.90;;
19537;SDS011;9914;51.008;4.300;2023-07-24T07:13:31;1999.90;;;999.90;;
19537;SDS011;9914;51.008;4.300;2023-07-24T07:15:57;1448.10;;;774.27;;
19537;SDS011;9914;51.008;4.300;2023-07-24T07:18:22;1999.90;;;999.90;;
19537;SDS011;9914;51.008;4.300;2023-07-24T07:20:49;1999.90;;;999.90;;
19537;SDS011;9914;51.008;4.300;2023-07-24T07:23:15;1999.90;;;999.90;;
19537;SDS011;9914;51.008;4.300;2023-07-24T07:25:42;1999.90;;;999.90;;
19537;SDS011;9914;51.008;4.300;2023-07-24T07:28:10;1999.90;;;999.90;;
19537;SDS011;9914;51.008;4.300;2023-07-24T07:30:36;1999.90;;;999.90;;
19537;SDS011;9914;51.008;4.300;2023-07-24T07:33:02;1999.90;;;999.90;;
19537;SDS011;9914;51.008;4.300;2023-07-24T07:35:29;1999.90;;;999.90;;
19537;SDS011;9914;51.008;4.300;2023-07-24T07:37:54;1999.90;;;999.90;;
19537;SDS011;9914;51.008;4.300;2023-07-24T07:40:20;1999.90;;;999.90;;
19537;SDS011;9914;51.008;4.300;2023-07-24T07:42:48;1999.90;;;999.90;;
19537;SDS011;9914;51.008;4.300;2023-07-24T07:45:14;1999.90;;;999.90;;
19537;SDS011;9914;51.008;4.300;2023-07-24T07:47:39;1999.90;;;999.90;;
19537;SDS011;9914;51.008;4.300;2023-07-24T07:50:05;1999.90;;;999.90;;
19537;SDS011;9914;51.008;4.300;2023-07-24T07:52:31;1999.90;;;999.90;;
19537;SDS011;9914;51.008;4.300;2023-07-24T07:54:56;1999.90;;;999.90;;
19537;SDS011;9914;51.008;4.300;2023-07-24T07:57:22;1999.90;;;999.90;;
19537;SDS011;9914;51.008;4.300;2023-07-24T07:59:48;1999.90;;;999.90;;
19537;SDS011;9914;51.008;4.300;2023-07-24T08:02:13;1999.90;;;999.90;;
19537;SDS011;9914;51.008;4.300;2023-07-24T08:04:39;1999.90;;;999.90;;
19537;SDS011;9914;51.008;4.300;2023-07-24T08:07:05;1999.90;;;999.90;;
19537;SDS011;9914;51.008;4.300;2023-07-24T08:09:30;1999.90;;;999.90;;
19537;SDS011;9914;51.008;4.300;2023-07-24T08:11:57;1999.90;;;999.90;;
19537;SDS011;9914;51.008;4.300;2023-07-24T08:14:23;1999.90;;;999.90;;
19537;SDS011;9914;51.008;4.300;2023-07-24T08:16:50;1999.90;;;999.90;;
19537;SDS011;9914;51.008;4.300;2023-07-24T08:19:16;1999.90;;;999.90;;
19537;SDS011;9914;51.008;4.300;2023-07-24T08:21:41;1999.90;;;999.90;;
19537;SDS011;9914;51.008;4.300;2023-07-24T08:24:07;1999.90;;;999.90;;
19537;SDS011;9914;51.008;4.300;2023-07-24T08:26:33;1999.90;;;999.90;;
19537;SDS011;9914;51.008;4.300;2023-07-24T08:28:58;1999.90;;;999.90;;
19537;SDS011;9914;51.008;4.300;2023-07-24T08:31:24;1999.90;;;999.90;;
19537;SDS011;9914;51.008;4.300;2023-07-24T08:33:49;1999.90;;;999.90;;
19537;SDS011;9914;51.008;4.300;2023-07-24T08:36:15;1999.90;;;999.90;;
19537;SDS011;9914;51.008;4.300;2023-07-24T08:38:41;1999.90;;;999.90;;
19537;SDS011;9914;51.008;4.300;2023-07-24T08:41:09;1999.90;;;999.90;;
19537;SDS011;9914;51.008;4.300;2023-07-24T08:43:36;1999.90;;;999.90;;
19537;SDS011;9914;51.008;4.300;2023-07-24T08:46:03;1999.90;;;999.90;;
19537;SDS011;9914;51.008;4.300;2023-07-24T08:48:39;1999.90;;;999.90;;
19537;SDS011;9914;51.008;4.300;2023-07-24T08:51:07;1999.90;;;999.90;;
19537;SDS011;9914;51.008;4.300;2023-07-24T08:53:35;1999.90;;;999.90;;
19537;SDS011;9914;51.008;4.300;2023-07-24T08:56:02;1999.90;;;999.90;;
19537;SDS011;9914;51.008;4.300;2023-07-24T08:58:30;1999.90;;;999.90;;
19537;SDS011;9914;51.008;4.300;2023-07-24T09:00:57;1999.90;;;999.90;;
19537;SDS011;9914;51.008;4.300;2023-07-24T09:03:23;1999.90;;;999.90;;
19537;SDS011;9914;51.008;4.300;2023-07-24T09:05:51;1999.90;;;999.90;;
19537;SDS011;9914;51.008;4.300;2023-07-24T09:08:27;1999.90;;;999.90;;
19537;SDS011;9914;51.008;4.300;2023-07-24T09:10:54;1999.90;;;999.90;;
19537;SDS011;9914;51.008;4.300;2023-07-24T09:13:20;1999.90;;;999.90;;
19537;SDS011;9914;51.008;4.300;2023-07-24T09:15:46;1999.90;;;999.90;;
19537;SDS011;9914;51.008;4.300;2023-07-24T09:18:12;1999.90;;;999.90;;
19537;SDS011;9914;51.008;4.300;2023-07-24T09:20:41;1999.90;;;999.90;;
19537;SDS011;9914;51.008;4.300;2023-07-24T09:23:08;1999.90;;;999.90;;
19537;SDS011;9914;51.008;4.300;2023-07-24T09:28:23;1999.90;;;999.90;;
19537;SDS011;9914;51.008;4.300;2023-07-24T09:30:54;1999.90;;;999.90;;
19537;SDS011;9914;51.008;4.300;2023-07-24T09:33:34;1999.90;;;999.90;;
19537;SDS011;9914;51.008;4.300;2023-07-24T09:36:02;1999.90;;;999.90;;
19537;SDS011;9914;51.008;4.300;2023-07-24T09:38:32;1999.90;;;999.90;;
19537;SDS011;9914;51.008;4.300;2023-07-24T09:41:00;1999.90;;;999.90;;
19537;SDS011;9914;51.008;4.300;2023-07-24T09:43:30;1999.90;;;999.90;;
19537;SDS011;9914;51.008;4.300;2023-07-24T09:45:56;1999.90;;;999.90;;
19537;SDS011;9914;51.008;4.300;2023-07-24T09:48:26;1999.90;;;999.90;;
19537;SDS011;9914;51.008;4.300;2023-07-24T09:50:55;1999.90;;;999.90;;
19537;SDS011;9914;51.008;4.300;2023-07-24T09:53:32;1999.90;;;999.90;;
19537;SDS011;9914;51.008;4.300;2023-07-24T09:56:02;1999.90;;;999.90;;
19537;SDS011;9914;51.008;4.300;2023-07-24T09:58:36;1999.90;;;999.90;;
19537;SDS011;9914;51.008;4.300;2023-07-24T10:01:03;1999.90;;;999.90;;
19537;SDS011;9914;51.008;4.300;2023-07-24T10:03:34;1999.90;;;999.90;;
19537;SDS011;9914;51.008;4.300;2023-07-24T10:06:00;1999.90;;;999.90;;
19537;SDS011;9914;51.008;4.300;2023-07-24T10:08:27;1999.90;;;999.90;;
19537;SDS011;9914;51.008;4.300;2023-07-24T10:10:54;1999.90;;;999.90;;
19537;SDS011;9914;51.008;4.300;2023-07-24T10:13:21;1999.90;;;999.90;;
19537;SDS011;9914;51.008;4.300;2023-07-24T10:15:48;1999.90;;;999.90;;
19537;SDS011;9914;51.008;4.300;2023-07-24T10:18:15;1999.90;;;999.90;;
19537;SDS011;9914;51.008;4.300;2023-07-24T10:20:42;1999.90;;;999.90;;
19537;SDS011;9914;51.008;4.300;2023-07-24T10:23:09;1999.90;;;999.90;;
19537;SDS011;9914;51.008;4.300;2023-07-24T10:25:38;1999.90;;;999.90;;
19537;SDS011;9914;51.008;4.300;2023-07-24T10:28:08;1999.90;;;999.90;;
19537;SDS011;9914;51.008;4.300;2023-07-24T10:30:39;1999.90;;;999.90;;
19537;SDS011;9914;51.008;4.300;2023-07-24T10:35:38;1999.90;;;999.90;;
19537;SDS011;9914;51.008;4.300;2023-07-24T10:38:09;1999.90;;;999.90;;
19537;SDS011;9914;51.008;4.300;2023-07-24T10:40:36;1999.90;;;999.90;;
19537;SDS011;9914;51.008;4.300;2023-07-24T10:43:07;1999.90;;;999.90;;
19537;SDS011;9914;51.008;4.300;2023-07-24T10:45:45;1999.90;;;999.90;;
19537;SDS011;9914;51.008;4.300;2023-07-24T10:48:19;1999.90;;;999.90;;
19537;SDS011;9914;51.008;4.300;2023-07-24T10:50:46;1999.90;;;999.90;;
19537;SDS011;9914;51.008;4.300;2023-07-24T10:53:14;1999.90;;;999.90;;
19537;SDS011;9914;51.008;4.300;2023-07-24T10:55:45;1999.90;;;999.90;;
19537;SDS011;9914;51.008;4.300;2023-07-24T10:58:12;1999.90;;;999.90;;
19537;SDS011;9914;51.008;4.300;2023-07-24T11:00:39;1999.90;;;999.90;;
19537;SDS011;9914;51.008;4.300;2023-07-24T11:03:09;1999.90;;;999.90;;
19537;SDS011;9914;51.008;4.300;2023-07-24T11:05:38;1999.90;;;999.90;;
19537;SDS011;9914;51.008;4.300;2023-07-24T11:08:10;1999.90;;;999.90;;
19537;SDS011;9914;51.008;4.300;2023-07-24T11:13:12;1999.90;;;999.90;;
19537;SDS011;9914;51.008;4.300;2023-07-24T11:15:39;1999.90;;;999.90;;
19537;SDS011;9914;51.008;4.300;2023-07-24T11:18:04;1999.90;;;999.90;;
19537;SDS011;9914;51.008;4.300;2023-07-24T11:20:33;1999.90;;;999.90;;
19537;SDS011;9914;51.008;4.300;2023-07-24T11:23:04;1999.90;;;999.90;;
19537;SDS011;9914;51.008;4.300;2023-07-24T11:25:30;1999.90;;;999.90;;
19537;SDS011;9914;51.008;4.300;2023-07-24T11:27:56;1999.90;;;999.90;;
19537;SDS011;9914;51.008;4.300;2023-07-24T11:30:22;1999.90;;;999.90;;
19537;SDS011;9914;51.008;4.300;2023-07-24T11:32:48;1999.90;;;999.90;;
19537;SDS011;9914;51.008;4.300;2023-07-24T11:35:14;1999.90;;;999.90;;
19537;SDS011;9914;51.008;4.300;2023-07-24T11:37:40;1999.90;;;999.90;;
19537;SDS011;9914;51.008;4.300;2023-07-24T11:40:06;1999.90;;;999.90;;
19537;SDS011;9914;51.008;4.300;2023-07-24T11:42:39;1999.90;;;999.90;;
19537;SDS011;9914;51.008;4.300;2023-07-24T11:45:07;1999.90;;;999.90;;
19537;SDS011;9914;51.008;4.300;2023-07-24T11:47:47;1999.90;;;999.90;;
19537;SDS011;9914;51.008;4.300;2023-07-24T11:50:14;1999.90;;;999.90;;
19537;SDS011;9914;51.008;4.300;2023-07-24T11:52:42;1999.90;;;999.90;;
19537;SDS011;9914;51.008;4.300;2023-07-24T11:55:10;1999.90;;;999.90;;
19537;SDS011;9914;51.008;4.300;2023-07-24T11:57:36;1999.90;;;999.90;;
19537;SDS011;9914;51.008;4.300;2023-07-24T12:00:03;1999.90;;;999.90;;
19537;SDS011;9914;51.008;4.300;2023-07-24T12:02:31;1999.90;;;999.90;;
19537;SDS011;9914;51.008;4.300;2023-07-24T12:04:58;1999.90;;;999.90;;
19537;SDS011;9914;51.008;4.300;2023-07-24T12:07:34;1999.90;;;999.90;;
19537;SDS011;9914;51.008;4.300;2023-07-24T12:10:03;1999.90;;;999.90;;
19537;SDS011;9914;51.008;4.300;2023-07-24T12:12:39;1999.90;;;999.90;;
19537;SDS011;9914;51.008;4.300;2023-07-24T12:15:09;1999.90;;;999.90;;
19537;SDS011;9914;51.008;4.300;2023-07-24T12:17:37;1999.90;;;999.90;;
19537;SDS011;9914;51.008;4.300;2023-07-24T12:20:06;1999.90;;;999.90;;
19537;SDS011;9914;51.008;4.300;2023-07-24T12:22:37;1999.90;;;999.90;;
19537;SDS011;9914;51.008;4.300;2023-07-24T12:25:03;1999.90;;;999.90;;
19537;SDS011;9914;51.008;4.300;2023-07-24T12:27:30;1999.90;;;999.90;;
19537;SDS011;9914;51.008;4.300;2023-07-24T12:29:56;1999.90;;;999.90;;
19537;SDS011;9914;51.008;4.300;2023-07-24T12:32:22;1999.90;;;999.90;;
19537;SDS011;9914;51.008;4.300;2023-07-24T12:34:50;1999.90;;;999.90;;
19537;SDS011;9914;51.008;4.300;2023-07-24T12:37:17;1999.90;;;999.90;;
19537;SDS011;9914;51.008;4.300;2023-07-24T12:39:46;1999.90;;;999.90;;
19537;SDS011;9914;51.008;4.300;2023-07-24T12:42:13;1999.90;;;999.90;;
19537;SDS011;9914;51.008;4.300;2023-07-24T12:44:42;1999.90;;;999.90;;
19537;SDS011;9914;51.008;4.300;2023-07-24T12:47:14;1999.90;;;999.90;;
19537;SDS011;9914;51.008;4.300;2023-07-24T12:49:40;1999.90;;;999.90;;
19537;SDS011;9914;51.008;4.300;2023-07-24T12:52:06;1999.90;;;999.90;;
19537;SDS011;9914;51.008;4.300;2023-07-24T12:54:32;1999.90;;;999.90;;
19537;SDS011;9914;51.008;4.300;2023-07-24T12:56:58;1999.90;;;999.90;;
19537;SDS011;9914;51.008;4.300;2023-07-24T12:59:24;1999.90;;;999.90;;
19537;SDS011;9914;51.008;4.300;2023-07-24T13:01:49;1999.90;;;999.90;;
19537;SDS011;9914;51.008;4.300;2023-07-24T13:04:15;1999.90;;;999.90;;
19537;SDS011;9914;51.008;4.300;2023-07-24T13:06:40;1999.90;;;999.90;;
19537;SDS011;9914;51.008;4.300;2023-07-24T13:09:07;1999.90;;;999.90;;
19537;SDS011;9914;51.008;4.300;2023-07-24T13:11:32;1999.90;;;999.90;;
19537;SDS011;9914;51.008;4.300;2023-07-24T13:13:58;1999.90;;;999.90;;
19537;SDS011;9914;51.008;4.300;2023-07-24T13:16:23;1999.90;;;999.90;;
19537;SDS011;9914;51.008;4.300;2023-07-24T13:18:49;1999.90;;;999.90;;
19537;SDS011;9914;51.008;4.300;2023-07-24T13:21:15;1999.90;;;999.90;;
19537;SDS011;9914;51.008;4.300;2023-07-24T13:23:41;1999.90;;;999.90;;
19537;SDS011;9914;51.008;4.300;2023-07-24T13:26:07;1999.90;;;999.90;;
19537;SDS011;9914;51.008;4.300;2023-07-24T13:28:39;1999.90;;;999.90;;
19537;SDS011;9914;51.008;4.300;2023-07-24T13:31:15;1999.90;;;999.90;;
19537;SDS011;9914;51.008;4.300;2023-07-24T13:33:44;1999.90;;;999.90;;
19537;SDS011;9914;51.008;4.300;2023-07-24T13:36:09;1999.90;;;999.90;;
19537;SDS011;9914;51.008;4.300;2023-07-24T13:38:35;1999.90;;;999.90;;
19537;SDS011;9914;51.008;4.300;2023-07-24T13:41:01;1999.90;;;999.90;;
19537;SDS011;9914;51.008;4.300;2023-07-24T13:43:29;1999.90;;;999.90;;
19537;SDS011;9914;51.008;4.300;2023-07-24T13:45:55;1999.90;;;999.90;;
19537;SDS011;9914;51.008;4.300;2023-07-24T13:48:21;1999.90;;;999.90;;
19537;SDS011;9914;51.008;4.300;2023-07-24T13:50:47;1999.90;;;999.90;;
19537;SDS011;9914;51.008;4.300;2023-07-24T13:53:12;1999.90;;;999.90;;
19537;SDS011;9914;51.008;4.300;2023-07-24T13:55:38;1999.90;;;999.90;;
19537;SDS011;9914;51.008;4.300;2023-07-24T13:58:04;1999.90;;;999.90;;
19537;SDS011;9914;51.008;4.300;2023-07-24T14:00:29;1999.90;;;999.90;;
19537;SDS011;9914;51.008;4.300;2023-07-24T14:02:55;1999.90;;;999.90;;
19537;SDS011;9914;51.008;4.300;2023-07-24T14:05:20;1999.90;;;999.90;;
19537;SDS011;9914;51.008;4.300;2023-07-24T14:07:46;1999.90;;;999.90;;
19537;SDS011;9914;51.008;4.300;2023-07-24T14:10:12;1999.90;;;999.90;;